sensor_id;sensor_type;location;lat;lon;timestamp;P1;durP1;ratioP1;P2;durP2;ratioP2
11988;SDS011;6054;50.966;7.094;2023-07-29T00:01:25;1.10;;;1.10;;
11988;SDS011;6054;50.966;7.094;2023-07-29T00:03:52;1.67;;;1.00;;
11988;SDS011;6054;50.966;7.094;2023-07-29T00:06:19;1.65;;;1.08;;
11988;SDS011;6054;50.966;7.094;2023-07-29T00:08:45;2.17;;;1.00;;
11988;SDS011;6054;50.966;7.094;2023-07-29T00:11:12;2.15;;;1.23;;
11988;SDS011;6054;50.966;7.094;2023-07-29T00:13:40;0.95;;;0.95;;
11988;SDS011;6054;50.966;7.094;2023-07-29T00:16:07;4.18;;;1.20;;
11988;SDS011;6054;50.966;7.094;2023-07-29T00:18:34;1.20;;;1.20;;
11988;SDS011;6054;50.966;7.094;2023-07-29T00:21:00;3.25;;;1.13;;
11988;SDS011;6054;50.966;7.094;2023-07-29T00:23:27;2.60;;;1.17;;
11988;SDS011;6054;50.966;7.094;2023-07-29T00:25:55;1.20;;;1.17;;
11988;SDS011;6054;50.966;7.094;2023-07-29T00:28:21;1.23;;;1.10;;
11988;SDS011;6054;50.966;7.094;2023-07-29T00:30:50;1.08;;;1.08;;
11988;SDS011;6054;50.966;7.094;2023-07-29T00:33:16;1.20;;;1.10;;
11988;SDS011;6054;50.966;7.094;2023-07-29T00:35:44;1.35;;;1.00;;
11988;SDS011;6054;50.966;7.094;2023-07-29T00:38:11;3.85;;;1.10;;
11988;SDS011;6054;50.966;7.094;2023-07-29T00:40:38;1.52;;;1.42;;
11988;SDS011;6054;50.966;7.094;2023-07-29T00:43:05;1.00;;;1.00;;
11988;SDS011;6054;50.966;7.094;2023-07-29T00:45:32;1.85;;;1.33;;
11988;SDS011;6054;50.966;7.094;2023-07-29T00:48:00;3.35;;;1.17;;
11988;SDS011;6054;50.966;7.094;2023-07-29T00:50:28;1.55;;;1.10;;
11988;SDS011;6054;50.966;7.094;2023-07-29T00:52:57;1.30;;;1.20;;
11988;SDS011;6054;50.966;7.094;2023-07-29T00:55:24;1.15;;;1.10;;
11988;SDS011;6054;50.966;7.094;2023-07-29T00:57:51;1.40;;;1.30;;
11988;SDS011;6054;50.966;7.094;2023-07-29T01:00:19;1.60;;;1.05;;
11988;SDS011;6054;50.966;7.094;2023-07-29T01:02:46;1.20;;;1.20;;
11988;SDS011;6054;50.966;7.094;2023-07-29T01:05:16;2.15;;;1.23;;
11988;SDS011;6054;50.966;7.094;2023-07-29T01:07:44;2.15;;;1.30;;
11988;SDS011;6054;50.966;7.094;2023-07-29T01:10:19;5.05;;;1.15;;
11988;SDS011;6054;50.966;7.094;2023-07-29T01:12:56;1.30;;;1.30;;
11988;SDS011;6054;50.966;7.094;2023-07-29T01:15:32;3.85;;;1.50;;
11988;SDS011;6054;50.966;7.094;2023-07-29T01:18:06;2.20;;;1.10;;
11988;SDS011;6054;50.966;7.094;2023-07-29T01:20:42;1.65;;;1.10;;
11988;SDS011;6054;50.966;7.094;2023-07-29T01:23:12;2.58;;;1.15;;
11988;SDS011;6054;50.966;7.094;2023-07-29T01:25:40;1.88;;;1.30;;
11988;SDS011;6054;50.966;7.094;2023-07-29T01:28:07;2.20;;;1.25;;
11988;SDS011;6054;50.966;7.094;2023-07-29T01:30:37;1.25;;;1.25;;
11988;SDS011;6054;50.966;7.094;2023-07-29T01:33:07;1.02;;;1.00;;
11988;SDS011;6054;50.966;7.094;2023-07-29T01:35:40;1.83;;;1.23;;
11988;SDS011;6054;50.966;7.094;2023-07-29T01:38:13;1.23;;;1.10;;
11988;SDS011;6054;50.966;7.094;2023-07-29T01:40:45;2.10;;;1.23;;
11988;SDS011;6054;50.966;7.094;2023-07-29T01:43:14;7.93;;;1.40;;
11988;SDS011;6054;50.966;7.094;2023-07-29T01:45:41;1.20;;;1.20;;
11988;SDS011;6054;50.966;7.094;2023-07-29T01:48:08;2.60;;;1.20;;
11988;SDS011;6054;50.966;7.094;2023-07-29T01:50:34;4.97;;;1.10;;
11988;SDS011;6054;50.966;7.094;2023-07-29T01:53:01;1.40;;;1.33;;
11988;SDS011;6054;50.966;7.094;2023-07-29T01:55:28;2.28;;;1.23;;
11988;SDS011;6054;50.966;7.094;2023-07-29T01:57:56;1.50;;;1.45;;
11988;SDS011;6054;50.966;7.094;2023-07-29T02:00:24;3.22;;;1.63;;
11988;SDS011;6054;50.966;7.094;2023-07-29T02:02:51;13.38;;;2.80;;
11988;SDS011;6054;50.966;7.094;2023-07-29T02:05:17;2.63;;;2.10;;
11988;SDS011;6054;50.966;7.094;2023-07-29T02:07:44;3.25;;;2.05;;
11988;SDS011;6054;50.966;7.094;2023-07-29T02:10:11;4.53;;;1.90;;
11988;SDS011;6054;50.966;7.094;2023-07-29T02:12:38;2.92;;;2.35;;
11988;SDS011;6054;50.966;7.094;2023-07-29T02:15:06;4.07;;;2.25;;
11988;SDS011;6054;50.966;7.094;2023-07-29T02:17:34;31.70;;;4.93;;
11988;SDS011;6054;50.966;7.094;2023-07-29T02:20:01;38.33;;;5.43;;
11988;SDS011;6054;50.966;7.094;2023-07-29T02:22:28;28.73;;;3.50;;
11988;SDS011;6054;50.966;7.094;2023-07-29T02:24:55;11.63;;;3.10;;
11988;SDS011;6054;50.966;7.094;2023-07-29T02:27:22;5.57;;;3.00;;
11988;SDS011;6054;50.966;7.094;2023-07-29T02:29:57;4.75;;;2.97;;
11988;SDS011;6054;50.966;7.094;2023-07-29T02:32:25;7.28;;;3.40;;
11988;SDS011;6054;50.966;7.094;2023-07-29T02:34:52;4.32;;;2.67;;
11988;SDS011;6054;50.966;7.094;2023-07-29T02:37:19;9.10;;;3.78;;
11988;SDS011;6054;50.966;7.094;2023-07-29T02:39:46;9.48;;;4.25;;
11988;SDS011;6054;50.966;7.094;2023-07-29T04:09:24;4.25;;;2.33;;
11988;SDS011;6054;50.966;7.094;2023-07-29T04:11:50;8.95;;;2.45;;
11988;SDS011;6054;50.966;7.094;2023-07-29T04:14:17;5.82;;;3.00;;
11988;SDS011;6054;50.966;7.094;2023-07-29T04:16:44;6.03;;;3.03;;
11988;SDS011;6054;50.966;7.094;2023-07-29T04:19:11;11.23;;;4.75;;
11988;SDS011;6054;50.966;7.094;2023-07-29T04:21:38;5.80;;;3.55;;
11988;SDS011;6054;50.966;7.094;2023-07-29T04:24:04;4.90;;;2.75;;
11988;SDS011;6054;50.966;7.094;2023-07-29T04:26:33;8.88;;;2.90;;
11988;SDS011;6054;50.966;7.094;2023-07-29T04:28:59;3.63;;;2.50;;
11988;SDS011;6054;50.966;7.094;2023-07-29T04:31:26;4.90;;;2.22;;
11988;SDS011;6054;50.966;7.094;2023-07-29T04:33:53;5.88;;;2.92;;
11988;SDS011;6054;50.966;7.094;2023-07-29T04:36:20;16.08;;;5.80;;
11988;SDS011;6054;50.966;7.094;2023-07-29T04:38:46;6.97;;;3.20;;
11988;SDS011;6054;50.966;7.094;2023-07-29T04:41:13;17.45;;;5.60;;
11988;SDS011;6054;50.966;7.094;2023-07-29T04:43:41;8.38;;;3.63;;
11988;SDS011;6054;50.966;7.094;2023-07-29T04:46:08;17.58;;;6.40;;
11988;SDS011;6054;50.966;7.094;2023-07-29T04:48:35;14.30;;;5.15;;
11988;SDS011;6054;50.966;7.094;2023-07-29T04:51:01;13.20;;;5.00;;
11988;SDS011;6054;50.966;7.094;2023-07-29T04:53:28;8.35;;;2.85;;
11988;SDS011;6054;50.966;7.094;2023-07-29T04:55:55;7.43;;;3.45;;
11988;SDS011;6054;50.966;7.094;2023-07-29T04:58:22;5.15;;;3.05;;
11988;SDS011;6054;50.966;7.094;2023-07-29T05:00:50;9.27;;;4.35;;
11988;SDS011;6054;50.966;7.094;2023-07-29T05:03:17;15.43;;;5.22;;
11988;SDS011;6054;50.966;7.094;2023-07-29T05:05:43;6.88;;;3.78;;
11988;SDS011;6054;50.966;7.094;2023-07-29T05:08:10;3.67;;;3.38;;
11988;SDS011;6054;50.966;7.094;2023-07-29T05:10:37;6.93;;;3.22;;
11988;SDS011;6054;50.966;7.094;2023-07-29T05:13:04;4.47;;;3.78;;
11988;SDS011;6054;50.966;7.094;2023-07-29T05:15:30;13.48;;;5.40;;
11988;SDS011;6054;50.966;7.094;2023-07-29T05:17:59;11.43;;;5.20;;
11988;SDS011;6054;50.966;7.094;2023-07-29T05:20:25;8.00;;;4.43;;
11988;SDS011;6054;50.966;7.094;2023-07-29T05:22:52;7.95;;;4.82;;
11988;SDS011;6054;50.966;7.094;2023-07-29T05:25:19;17.17;;;6.95;;
11988;SDS011;6054;50.966;7.094;2023-07-29T05:27:45;5.20;;;4.32;;
11988;SDS011;6054;50.966;7.094;2023-07-29T05:30:12;7.68;;;4.45;;
11988;SDS011;6054;50.966;7.094;2023-07-29T05:32:39;8.00;;;5.00;;
11988;SDS011;6054;50.966;7.094;2023-07-29T05:35:07;8.48;;;5.60;;
11988;SDS011;6054;50.966;7.094;2023-07-29T05:37:35;14.50;;;6.15;;
11988;SDS011;6054;50.966;7.094;2023-07-29T05:40:04;5.50;;;4.50;;
11988;SDS011;6054;50.966;7.094;2023-07-29T05:42:32;9.73;;;5.47;;
11988;SDS011;6054;50.966;7.094;2023-07-29T05:44:58;8.98;;;5.93;;
11988;SDS011;6054;50.966;7.094;2023-07-29T05:47:25;13.25;;;6.13;;
11988;SDS011;6054;50.966;7.094;2023-07-29T05:49:52;13.45;;;6.00;;
11988;SDS011;6054;50.966;7.094;2023-07-29T05:52:20;7.38;;;5.40;;
11988;SDS011;6054;50.966;7.094;2023-07-29T05:54:47;7.60;;;4.85;;
11988;SDS011;6054;50.966;7.094;2023-07-29T05:57:14;10.25;;;4.95;;
11988;SDS011;6054;50.966;7.094;2023-07-29T05:59:41;8.07;;;4.53;;
11988;SDS011;6054;50.966;7.094;2023-07-29T06:02:07;10.00;;;4.90;;
11988;SDS011;6054;50.966;7.094;2023-07-29T06:04:34;5.22;;;3.80;;
11988;SDS011;6054;50.966;7.094;2023-07-29T06:07:01;7.90;;;5.93;;
11988;SDS011;6054;50.966;7.094;2023-07-29T06:09:29;6.72;;;4.20;;
11988;SDS011;6054;50.966;7.094;2023-07-29T06:11:56;5.15;;;3.90;;
11988;SDS011;6054;50.966;7.094;2023-07-29T06:14:23;5.82;;;4.70;;
11988;SDS011;6054;50.966;7.094;2023-07-29T06:16:49;9.32;;;5.07;;
11988;SDS011;6054;50.966;7.094;2023-07-29T06:19:17;6.72;;;4.55;;
11988;SDS011;6054;50.966;7.094;2023-07-29T06:21:44;8.48;;;5.43;;
11988;SDS011;6054;50.966;7.094;2023-07-29T06:24:11;8.45;;;3.85;;
11988;SDS011;6054;50.966;7.094;2023-07-29T06:26:39;6.30;;;4.22;;
11988;SDS011;6054;50.966;7.094;2023-07-29T06:29:06;6.95;;;4.05;;
11988;SDS011;6054;50.966;7.094;2023-07-29T06:31:32;7.32;;;4.22;;
11988;SDS011;6054;50.966;7.094;2023-07-29T06:33:59;5.97;;;3.70;;
11988;SDS011;6054;50.966;7.094;2023-07-29T06:36:26;5.70;;;4.10;;
11988;SDS011;6054;50.966;7.094;2023-07-29T06:38:53;7.72;;;3.45;;
11988;SDS011;6054;50.966;7.094;2023-07-29T06:41:19;4.90;;;3.53;;
11988;SDS011;6054;50.966;7.094;2023-07-29T06:43:47;7.47;;;3.95;;
11988;SDS011;6054;50.966;7.094;2023-07-29T06:46:14;5.40;;;3.65;;
11988;SDS011;6054;50.966;7.094;2023-07-29T06:48:41;7.35;;;3.80;;
11988;SDS011;6054;50.966;7.094;2023-07-29T06:51:08;3.92;;;2.50;;
11988;SDS011;6054;50.966;7.094;2023-07-29T06:53:34;3.60;;;2.08;;
11988;SDS011;6054;50.966;7.094;2023-07-29T06:56:01;2.20;;;2.10;;
11988;SDS011;6054;50.966;7.094;2023-07-29T06:58:28;1.90;;;1.80;;
11988;SDS011;6054;50.966;7.094;2023-07-29T07:00:56;2.50;;;1.80;;
11988;SDS011;6054;50.966;7.094;2023-07-29T07:03:23;3.35;;;2.08;;
11988;SDS011;6054;50.966;7.094;2023-07-29T07:05:50;3.67;;;2.10;;
11988;SDS011;6054;50.966;7.094;2023-07-29T07:08:17;2.72;;;2.20;;
11988;SDS011;6054;50.966;7.094;2023-07-29T07:10:44;3.45;;;2.67;;
11988;SDS011;6054;50.966;7.094;2023-07-29T07:13:12;2.60;;;2.00;;
11988;SDS011;6054;50.966;7.094;2023-07-29T07:15:39;3.17;;;2.28;;
11988;SDS011;6054;50.966;7.094;2023-07-29T07:18:07;2.75;;;2.00;;
11988;SDS011;6054;50.966;7.094;2023-07-29T07:20:34;3.90;;;2.20;;
11988;SDS011;6054;50.966;7.094;2023-07-29T07:23:01;3.45;;;2.17;;
11988;SDS011;6054;50.966;7.094;2023-07-29T07:25:30;4.60;;;2.22;;
11988;SDS011;6054;50.966;7.094;2023-07-29T07:27:57;2.28;;;1.70;;
11988;SDS011;6054;50.966;7.094;2023-07-29T07:30:24;3.85;;;1.92;;
11988;SDS011;6054;50.966;7.094;2023-07-29T07:32:50;4.07;;;2.13;;
11988;SDS011;6054;50.966;7.094;2023-07-29T07:35:19;2.67;;;2.00;;
11988;SDS011;6054;50.966;7.094;2023-07-29T07:37:45;2.47;;;2.20;;
11988;SDS011;6054;50.966;7.094;2023-07-29T07:40:12;3.10;;;2.40;;
11988;SDS011;6054;50.966;7.094;2023-07-29T07:42:39;3.55;;;2.40;;
11988;SDS011;6054;50.966;7.094;2023-07-29T07:45:06;2.90;;;2.08;;
11988;SDS011;6054;50.966;7.094;2023-07-29T07:47:33;2.15;;;2.00;;
11988;SDS011;6054;50.966;7.094;2023-07-29T07:49:59;3.33;;;1.77;;
11988;SDS011;6054;50.966;7.094;2023-07-29T07:52:27;1.90;;;1.80;;
11988;SDS011;6054;50.966;7.094;2023-07-29T07:54:54;3.92;;;2.03;;
11988;SDS011;6054;50.966;7.094;2023-07-29T07:57:21;4.65;;;1.70;;
11988;SDS011;6054;50.966;7.094;2023-07-29T07:59:48;4.47;;;2.08;;
11988;SDS011;6054;50.966;7.094;2023-07-29T08:02:18;2.72;;;1.85;;
11988;SDS011;6054;50.966;7.094;2023-07-29T08:04:45;1.77;;;1.60;;
11988;SDS011;6054;50.966;7.094;2023-07-29T08:07:12;3.47;;;1.65;;
11988;SDS011;6054;50.966;7.094;2023-07-29T08:09:40;2.35;;;1.80;;
11988;SDS011;6054;50.966;7.094;2023-07-29T08:12:07;4.10;;;1.90;;
11988;SDS011;6054;50.966;7.094;2023-07-29T08:14:34;3.08;;;1.80;;
11988;SDS011;6054;50.966;7.094;2023-07-29T08:17:01;2.20;;;1.40;;
11988;SDS011;6054;50.966;7.094;2023-07-29T08:19:28;1.65;;;1.33;;
11988;SDS011;6054;50.966;7.094;2023-07-29T08:21:55;3.00;;;1.60;;
11988;SDS011;6054;50.966;7.094;2023-07-29T08:24:21;1.30;;;1.20;;
11988;SDS011;6054;50.966;7.094;2023-07-29T08:26:50;1.92;;;1.50;;
11988;SDS011;6054;50.966;7.094;2023-07-29T08:29:16;2.95;;;1.20;;
11988;SDS011;6054;50.966;7.094;2023-07-29T08:31:43;1.30;;;1.20;;
11988;SDS011;6054;50.966;7.094;2023-07-29T08:34:10;2.15;;;1.30;;
11988;SDS011;6054;50.966;7.094;2023-07-29T08:36:37;1.67;;;1.30;;
11988;SDS011;6054;50.966;7.094;2023-07-29T08:39:04;1.58;;;1.30;;
11988;SDS011;6054;50.966;7.094;2023-07-29T08:41:31;4.40;;;1.40;;
11988;SDS011;6054;50.966;7.094;2023-07-29T08:44:06;3.20;;;1.45;;
11988;SDS011;6054;50.966;7.094;2023-07-29T08:46:35;2.67;;;1.50;;
11988;SDS011;6054;50.966;7.094;2023-07-29T08:49:07;1.48;;;1.38;;
11988;SDS011;6054;50.966;7.094;2023-07-29T08:51:41;1.73;;;1.60;;
11988;SDS011;6054;50.966;7.094;2023-07-29T08:54:11;2.72;;;1.30;;
11988;SDS011;6054;50.966;7.094;2023-07-29T08:56:40;2.25;;;1.48;;
11988;SDS011;6054;50.966;7.094;2023-07-29T08:59:10;3.05;;;1.40;;
11988;SDS011;6054;50.966;7.094;2023-07-29T09:01:37;1.73;;;1.63;;
11988;SDS011;6054;50.966;7.094;2023-07-29T09:04:05;1.92;;;1.27;;
11988;SDS011;6054;50.966;7.094;2023-07-29T09:06:31;1.90;;;1.50;;
11988;SDS011;6054;50.966;7.094;2023-07-29T09:08:59;4.45;;;1.67;;
11988;SDS011;6054;50.966;7.094;2023-07-29T09:11:27;1.65;;;1.42;;
11988;SDS011;6054;50.966;7.094;2023-07-29T09:13:55;2.25;;;1.40;;
11988;SDS011;6054;50.966;7.094;2023-07-29T09:16:23;2.28;;;1.67;;
11988;SDS011;6054;50.966;7.094;2023-07-29T09:18:51;2.58;;;1.60;;
11988;SDS011;6054;50.966;7.094;2023-07-29T09:21:20;1.65;;;1.55;;
11988;SDS011;6054;50.966;7.094;2023-07-29T09:23:49;4.50;;;1.77;;
11988;SDS011;6054;50.966;7.094;2023-07-29T09:26:24;1.40;;;1.30;;
11988;SDS011;6054;50.966;7.094;2023-07-29T09:28:52;4.85;;;1.58;;
11988;SDS011;6054;50.966;7.094;2023-07-29T09:31:20;2.05;;;1.65;;
11988;SDS011;6054;50.966;7.094;2023-07-29T09:33:50;2.30;;;1.63;;
11988;SDS011;6054;50.966;7.094;2023-07-29T09:36:22;2.97;;;1.50;;
11988;SDS011;6054;50.966;7.094;2023-07-29T09:38:51;1.70;;;1.60;;
11988;SDS011;6054;50.966;7.094;2023-07-29T09:41:19;1.45;;;1.38;;
11988;SDS011;6054;50.966;7.094;2023-07-29T09:43:47;8.50;;;1.63;;
11988;SDS011;6054;50.966;7.094;2023-07-29T09:46:22;1.48;;;1.35;;
11988;SDS011;6054;50.966;7.094;2023-07-29T09:48:52;2.25;;;1.40;;
11988;SDS011;6054;50.966;7.094;2023-07-29T09:51:19;2.28;;;1.52;;
11988;SDS011;6054;50.966;7.094;2023-07-29T09:53:47;2.90;;;1.48;;
11988;SDS011;6054;50.966;7.094;2023-07-29T09:56:14;1.55;;;1.40;;
11988;SDS011;6054;50.966;7.094;2023-07-29T09:58:42;1.73;;;1.63;;
11988;SDS011;6054;50.966;7.094;2023-07-29T10:01:10;1.60;;;1.50;;
11988;SDS011;6054;50.966;7.094;2023-07-29T10:03:37;2.85;;;1.70;;
11988;SDS011;6054;50.966;7.094;2023-07-29T10:06:06;1.45;;;1.42;;
11988;SDS011;6054;50.966;7.094;2023-07-29T10:08:33;1.77;;;1.65;;
11988;SDS011;6054;50.966;7.094;2023-07-29T10:11:03;3.40;;;1.75;;
11988;SDS011;6054;50.966;7.094;2023-07-29T10:13:32;2.00;;;1.90;;
11988;SDS011;6054;50.966;7.094;2023-07-29T10:15:59;2.20;;;1.70;;
11988;SDS011;6054;50.966;7.094;2023-07-29T10:18:27;1.85;;;1.75;;
11988;SDS011;6054;50.966;7.094;2023-07-29T10:20:56;1.92;;;1.80;;
11988;SDS011;6054;50.966;7.094;2023-07-29T10:23:26;1.98;;;1.80;;
11988;SDS011;6054;50.966;7.094;2023-07-29T10:25:55;1.80;;;1.70;;
11988;SDS011;6054;50.966;7.094;2023-07-29T10:28:28;2.67;;;1.88;;
11988;SDS011;6054;50.966;7.094;2023-07-29T10:30:56;2.13;;;1.75;;
11988;SDS011;6054;50.966;7.094;2023-07-29T10:33:23;2.03;;;1.90;;
11988;SDS011;6054;50.966;7.094;2023-07-29T10:35:51;1.90;;;1.60;;
11988;SDS011;6054;50.966;7.094;2023-07-29T10:38:18;1.52;;;1.40;;
11988;SDS011;6054;50.966;7.094;2023-07-29T10:40:50;1.60;;;1.45;;
11988;SDS011;6054;50.966;7.094;2023-07-29T10:43:24;4.63;;;1.60;;
11988;SDS011;6054;50.966;7.094;2023-07-29T10:45:52;1.40;;;1.30;;
11988;SDS011;6054;50.966;7.094;2023-07-29T10:51:23;2.08;;;1.20;;
11988;SDS011;6054;50.966;7.094;2023-07-29T10:53:52;2.35;;;1.48;;
11988;SDS011;6054;50.966;7.094;2023-07-29T10:56:31;1.45;;;1.30;;
11988;SDS011;6054;50.966;7.094;2023-07-29T10:58:59;1.67;;;1.58;;
11988;SDS011;6054;50.966;7.094;2023-07-29T11:01:50;2.78;;;1.40;;
11988;SDS011;6054;50.966;7.094;2023-07-29T11:04:24;1.58;;;1.20;;
11988;SDS011;6054;50.966;7.094;2023-07-29T11:09:53;1.25;;;1.20;;
11988;SDS011;6054;50.966;7.094;2023-07-29T11:12:36;1.48;;;1.38;;
11988;SDS011;6054;50.966;7.094;2023-07-29T11:15:04;1.33;;;1.33;;
11988;SDS011;6054;50.966;7.094;2023-07-29T11:17:39;1.90;;;1.80;;
11988;SDS011;6054;50.966;7.094;2023-07-29T11:20:06;31.88;;;4.78;;
11988;SDS011;6054;50.966;7.094;2023-07-29T11:22:34;3.20;;;1.88;;
11988;SDS011;6054;50.966;7.094;2023-07-29T11:25:03;1.80;;;1.70;;
11988;SDS011;6054;50.966;7.094;2023-07-29T11:27:30;2.63;;;1.60;;
11988;SDS011;6054;50.966;7.094;2023-07-29T11:29:58;1.52;;;1.42;;
11988;SDS011;6054;50.966;7.094;2023-07-29T11:32:30;2.10;;;1.90;;
11988;SDS011;6054;50.966;7.094;2023-07-29T11:35:00;1.58;;;1.48;;
11988;SDS011;6054;50.966;7.094;2023-07-29T11:37:29;3.15;;;2.10;;
11988;SDS011;6054;50.966;7.094;2023-07-29T11:39:56;1.88;;;1.77;;
11988;SDS011;6054;50.966;7.094;2023-07-29T11:42:23;2.03;;;1.92;;
11988;SDS011;6054;50.966;7.094;2023-07-29T11:44:50;2.15;;;1.85;;
11988;SDS011;6054;50.966;7.094;2023-07-29T11:47:18;1.90;;;1.70;;
11988;SDS011;6054;50.966;7.094;2023-07-29T11:49:45;1.80;;;1.70;;
11988;SDS011;6054;50.966;7.094;2023-07-29T11:52:14;1.98;;;1.60;;
11988;SDS011;6054;50.966;7.094;2023-07-29T11:54:44;1.70;;;1.58;;
11988;SDS011;6054;50.966;7.094;2023-07-29T11:57:11;1.70;;;1.60;;
11988;SDS011;6054;50.966;7.094;2023-07-29T11:59:39;1.58;;;1.48;;
11988;SDS011;6054;50.966;7.094;2023-07-29T12:02:08;2.40;;;2.30;;
11988;SDS011;6054;50.966;7.094;2023-07-29T12:04:39;2.55;;;1.90;;
11988;SDS011;6054;50.966;7.094;2023-07-29T12:07:07;2.58;;;1.63;;
11988;SDS011;6054;50.966;7.094;2023-07-29T12:09:34;1.90;;;1.80;;
11988;SDS011;6054;50.966;7.094;2023-07-29T12:12:02;2.03;;;1.85;;
11988;SDS011;6054;50.966;7.094;2023-07-29T12:14:29;1.90;;;1.80;;
11988;SDS011;6054;50.966;7.094;2023-07-29T12:16:59;1.75;;;1.65;;
11988;SDS011;6054;50.966;7.094;2023-07-29T12:19:30;3.15;;;2.03;;
11988;SDS011;6054;50.966;7.094;2023-07-29T12:22:00;2.20;;;2.00;;
11988;SDS011;6054;50.966;7.094;2023-07-29T12:24:29;2.00;;;1.90;;
11988;SDS011;6054;50.966;7.094;2023-07-29T12:26:56;1.77;;;1.67;;
11988;SDS011;6054;50.966;7.094;2023-07-29T12:29:23;1.73;;;1.63;;
11988;SDS011;6054;50.966;7.094;2023-07-29T12:31:56;2.17;;;1.88;;
11988;SDS011;6054;50.966;7.094;2023-07-29T12:34:25;3.00;;;1.70;;
11988;SDS011;6054;50.966;7.094;2023-07-29T12:36:53;1.80;;;1.70;;
11988;SDS011;6054;50.966;7.094;2023-07-29T12:39:22;1.80;;;1.70;;
11988;SDS011;6054;50.966;7.094;2023-07-29T12:41:51;2.25;;;1.65;;
11988;SDS011;6054;50.966;7.094;2023-07-29T12:44:19;1.80;;;1.70;;
11988;SDS011;6054;50.966;7.094;2023-07-29T12:46:46;1.60;;;1.50;;
11988;SDS011;6054;50.966;7.094;2023-07-29T12:49:12;1.55;;;1.45;;
11988;SDS011;6054;50.966;7.094;2023-07-29T12:51:40;1.85;;;1.73;;
11988;SDS011;6054;50.966;7.094;2023-07-29T12:54:06;1.77;;;1.67;;
11988;SDS011;6054;50.966;7.094;2023-07-29T12:56:35;3.72;;;1.50;;
11988;SDS011;6054;50.966;7.094;2023-07-29T12:59:02;1.55;;;1.35;;
11988;SDS011;6054;50.966;7.094;2023-07-29T13:01:29;1.60;;;1.50;;
11988;SDS011;6054;50.966;7.094;2023-07-29T13:03:55;1.52;;;1.38;;
11988;SDS011;6054;50.966;7.094;2023-07-29T13:06:22;1.58;;;1.58;;
11988;SDS011;6054;50.966;7.094;2023-07-29T13:08:49;1.70;;;1.50;;
11988;SDS011;6054;50.966;7.094;2023-07-29T13:11:16;2.25;;;1.23;;
11988;SDS011;6054;50.966;7.094;2023-07-29T13:13:44;1.20;;;1.20;;
11988;SDS011;6054;50.966;7.094;2023-07-29T13:16:11;2.00;;;1.30;;
11988;SDS011;6054;50.966;7.094;2023-07-29T13:18:38;2.50;;;1.90;;
11988;SDS011;6054;50.966;7.094;2023-07-29T13:21:05;1.60;;;1.50;;
11988;SDS011;6054;50.966;7.094;2023-07-29T13:23:32;1.20;;;1.20;;
11988;SDS011;6054;50.966;7.094;2023-07-29T13:25:59;2.03;;;1.40;;
11988;SDS011;6054;50.966;7.094;2023-07-29T13:28:26;1.70;;;1.60;;
11988;SDS011;6054;50.966;7.094;2023-07-29T13:30:54;1.50;;;1.50;;
11988;SDS011;6054;50.966;7.094;2023-07-29T13:33:20;2.20;;;1.55;;
11988;SDS011;6054;50.966;7.094;2023-07-29T13:35:47;1.50;;;1.40;;
11988;SDS011;6054;50.966;7.094;2023-07-29T13:38:14;1.30;;;1.30;;
11988;SDS011;6054;50.966;7.094;2023-07-29T13:40:41;1.40;;;1.30;;
11988;SDS011;6054;50.966;7.094;2023-07-29T13:43:08;1.52;;;1.30;;
11988;SDS011;6054;50.966;7.094;2023-07-29T13:45:34;1.50;;;1.40;;
11988;SDS011;6054;50.966;7.094;2023-07-29T13:48:03;2.13;;;1.52;;
11988;SDS011;6054;50.966;7.094;2023-07-29T13:50:30;2.25;;;1.60;;
11988;SDS011;6054;50.966;7.094;2023-07-29T13:52:56;1.35;;;1.35;;
11988;SDS011;6054;50.966;7.094;2023-07-29T13:55:23;1.60;;;1.50;;
11988;SDS011;6054;50.966;7.094;2023-07-29T13:57:51;1.70;;;1.60;;
11988;SDS011;6054;50.966;7.094;2023-07-29T14:00:18;2.03;;;1.90;;
11988;SDS011;6054;50.966;7.094;2023-07-29T14:02:45;4.28;;;1.63;;
11988;SDS011;6054;50.966;7.094;2023-07-29T14:05:13;3.00;;;1.90;;
11988;SDS011;6054;50.966;7.094;2023-07-29T14:07:40;3.22;;;1.77;;
11988;SDS011;6054;50.966;7.094;2023-07-29T14:10:07;2.00;;;1.90;;
11988;SDS011;6054;50.966;7.094;2023-07-29T14:12:34;3.58;;;2.25;;
11988;SDS011;6054;50.966;7.094;2023-07-29T14:15:01;2.65;;;2.05;;
11988;SDS011;6054;50.966;7.094;2023-07-29T14:17:27;1.92;;;1.73;;
11988;SDS011;6054;50.966;7.094;2023-07-29T14:19:54;3.33;;;2.08;;
11988;SDS011;6054;50.966;7.094;2023-07-29T14:22:22;2.53;;;1.83;;
11988;SDS011;6054;50.966;7.094;2023-07-29T14:24:49;1.77;;;1.55;;
11988;SDS011;6054;50.966;7.094;2023-07-29T14:27:16;2.20;;;2.10;;
11988;SDS011;6054;50.966;7.094;2023-07-29T14:29:42;1.90;;;1.80;;
11988;SDS011;6054;50.966;7.094;2023-07-29T14:32:09;2.42;;;1.90;;
11988;SDS011;6054;50.966;7.094;2023-07-29T14:34:36;1.70;;;1.60;;
11988;SDS011;6054;50.966;7.094;2023-07-29T14:37:03;3.58;;;2.38;;
11988;SDS011;6054;50.966;7.094;2023-07-29T14:39:32;2.03;;;1.92;;
11988;SDS011;6054;50.966;7.094;2023-07-29T14:41:59;3.65;;;1.92;;
11988;SDS011;6054;50.966;7.094;2023-07-29T14:44:26;2.55;;;1.80;;
11988;SDS011;6054;50.966;7.094;2023-07-29T14:46:52;5.07;;;2.28;;
11988;SDS011;6054;50.966;7.094;2023-07-29T14:49:20;1.90;;;1.80;;
11988;SDS011;6054;50.966;7.094;2023-07-29T14:51:47;1.95;;;1.85;;
11988;SDS011;6054;50.966;7.094;2023-07-29T14:54:13;2.00;;;1.90;;
11988;SDS011;6054;50.966;7.094;2023-07-29T14:56:41;1.85;;;1.75;;
11988;SDS011;6054;50.966;7.094;2023-07-29T14:59:08;1.70;;;1.60;;
11988;SDS011;6054;50.966;7.094;2023-07-29T15:01:35;2.97;;;1.58;;
11988;SDS011;6054;50.966;7.094;2023-07-29T15:04:02;2.00;;;1.90;;
11988;SDS011;6054;50.966;7.094;2023-07-29T15:06:29;1.98;;;1.88;;
11988;SDS011;6054;50.966;7.094;2023-07-29T15:08:56;2.10;;;1.90;;
11988;SDS011;6054;50.966;7.094;2023-07-29T15:11:23;2.38;;;1.90;;
11988;SDS011;6054;50.966;7.094;2023-07-29T15:13:51;2.28;;;2.17;;
11988;SDS011;6054;50.966;7.094;2023-07-29T15:16:18;1.88;;;1.77;;
11988;SDS011;6054;50.966;7.094;2023-07-29T15:18:44;1.90;;;1.80;;
11988;SDS011;6054;50.966;7.094;2023-07-29T15:21:11;1.98;;;1.80;;
11988;SDS011;6054;50.966;7.094;2023-07-29T15:23:38;2.15;;;1.80;;
11988;SDS011;6054;50.966;7.094;2023-07-29T15:26:05;2.05;;;1.85;;
11988;SDS011;6054;50.966;7.094;2023-07-29T15:28:32;1.90;;;1.70;;
11988;SDS011;6054;50.966;7.094;2023-07-29T15:31:00;1.90;;;1.77;;
11988;SDS011;6054;50.966;7.094;2023-07-29T15:33:27;2.20;;;2.00;;
11988;SDS011;6054;50.966;7.094;2023-07-29T15:35:54;1.92;;;1.70;;
11988;SDS011;6054;50.966;7.094;2023-07-29T15:38:20;2.03;;;1.92;;
11988;SDS011;6054;50.966;7.094;2023-07-29T15:40:47;2.03;;;1.92;;
11988;SDS011;6054;50.966;7.094;2023-07-29T15:43:17;2.20;;;1.92;;
11988;SDS011;6054;50.966;7.094;2023-07-29T15:45:44;2.45;;;1.90;;
11988;SDS011;6054;50.966;7.094;2023-07-29T15:48:12;2.15;;;2.03;;
11988;SDS011;6054;50.966;7.094;2023-07-29T15:50:39;2.03;;;1.92;;
11988;SDS011;6054;50.966;7.094;2023-07-29T15:53:05;2.13;;;1.92;;
11988;SDS011;6054;50.966;7.094;2023-07-29T15:55:32;3.08;;;2.00;;
11988;SDS011;6054;50.966;7.094;2023-07-29T15:57:59;1.90;;;1.80;;
11988;SDS011;6054;50.966;7.094;2023-07-29T16:00:26;1.90;;;1.80;;
11988;SDS011;6054;50.966;7.094;2023-07-29T16:02:53;2.00;;;1.90;;
11988;SDS011;6054;50.966;7.094;2023-07-29T16:05:22;2.70;;;1.90;;
11988;SDS011;6054;50.966;7.094;2023-07-29T16:07:48;2.63;;;1.92;;
11988;SDS011;6054;50.966;7.094;2023-07-29T16:10:15;5.85;;;2.00;;
11988;SDS011;6054;50.966;7.094;2023-07-29T16:12:42;2.50;;;1.95;;
11988;SDS011;6054;50.966;7.094;2023-07-29T16:15:09;3.22;;;2.30;;
11988;SDS011;6054;50.966;7.094;2023-07-29T16:17:36;2.58;;;1.83;;
11988;SDS011;6054;50.966;7.094;2023-07-29T16:20:03;2.55;;;2.10;;
11988;SDS011;6054;50.966;7.094;2023-07-29T16:22:32;2.97;;;1.98;;
11988;SDS011;6054;50.966;7.094;2023-07-29T16:24:59;4.78;;;2.00;;
11988;SDS011;6054;50.966;7.094;2023-07-29T16:27:26;2.05;;;1.95;;
11988;SDS011;6054;50.966;7.094;2023-07-29T16:29:56;2.40;;;2.00;;
11988;SDS011;6054;50.966;7.094;2023-07-29T16:32:23;2.47;;;2.17;;
11988;SDS011;6054;50.966;7.094;2023-07-29T16:34:50;2.58;;;2.38;;
11988;SDS011;6054;50.966;7.094;2023-07-29T16:37:17;2.80;;;2.50;;